createdAt,value
2022-08-01T12:33:35.278Z,48.20
2022-08-01T12:48:41.086Z,47.00
2022-08-01T13:04:05.135Z,44.40
2022-08-01T13:19:12.148Z,43.70
2022-08-01T13:34:18.643Z,42.10
2022-08-01T13:49:24.662Z,35.80
2022-08-01T14:04:43.206Z,34.50
2022-08-01T14:19:48.634Z,33.60
2022-08-01T14:34:54.269Z,31.30
2022-08-01T14:49:59.819Z,33.30
2022-08-01T15:05:06.507Z,30.90
2022-08-01T15:20:12.616Z,31.10
2022-08-01T15:35:18.345Z,35.00
2022-08-01T15:50:24.553Z,37.90
2022-08-01T16:05:32.468Z,39.00
2022-08-01T16:20:44.789Z,37.50
2022-08-01T16:35:52.973Z,33.80
2022-08-01T16:50:59.635Z,33.90
2022-08-01T17:06:05.364Z,34.90
2022-08-01T17:21:11.165Z,34.50
2022-08-01T17:36:17.919Z,33.60
2022-08-01T17:51:24.369Z,33.90
2022-08-01T18:06:31.055Z,34.50
2022-08-01T18:21:43.159Z,34.50
2022-08-01T18:36:49.154Z,34.80
2022-08-01T18:51:55.440Z,37.40
2022-08-01T19:07:02.617Z,40.00
2022-08-01T19:22:09.407Z,41.70
2022-08-01T19:37:17.081Z,43.30
2022-08-01T19:52:26.764Z,44.40
2022-08-01T20:07:36.035Z,45.20
2022-08-01T20:22:43.073Z,45.80
2022-08-01T20:38:05.840Z,46.40
2022-08-01T20:53:12.550Z,46.90
2022-08-01T21:08:23.872Z,47.30
2022-08-01T21:23:35.191Z,47.90
2022-08-01T21:38:43.711Z,48.50
2022-08-01T21:53:51.739Z,49.20
2022-08-01T22:09:07.387Z,49.60
2022-08-01T22:24:15.467Z,50.30
2022-08-01T22:39:21.015Z,50.60
2022-08-01T22:54:32.205Z,52.00
2022-08-01T23:09:54.465Z,52.80
2022-08-01T23:25:04.306Z,53.40
2022-08-01T23:40:12.785Z,54.40
2022-08-01T23:55:18.592Z,54.90
